Terminal Aerodrome Forecast
Issued by NWS

Home | Current Version | Previous Version | Text Only | Print | Product List | Glossary On
Versions: 1 2 3 4 5 6 7 8 9 10 11 12 13 14
000
FTUS46 KLOX 290542
TAFBUR
TAF
KBUR 290542Z 2906/3006 13007KT P6SM SKC
     FM291100 VRB03KT 4SM BR OVC005
     FM291600 VRB03KT 5SM HZ SKC
     FM291900 17010KT P6SM SKC
     FM300300 VRB03KT P6SM SKC=

USA.gov is the U.S. government's official web portal to all federal, state and local government web resources and services.